Malacca Airport
WMKM : now visible

Airfield :











YOU CAN JOIN US ON...

 
LOGIN :

Register | Disclaimer

   EN    FR    IT 

 









Legend :    VFR   Marginal VFR   IFR   Intensive IFR   Very Intensive IFR
Visi :
Ceiling :
>= 8 km
>= 3000ft
5 to 8 km
1000 to 3000 ft
1500m to 5 km
500 to 1000 ft
800 to 1500m
200 to 500 ft
< 800m
< 200 ft
Symbols :   Thunderstorms  Fog  Heavy snow  Heavy precipitations  Wind > 20 kt






- Airport Elevation : 35 ft
- IATA code : MKZ


WMKM - Malacca

CURRENT METAR :
  • 280300Z 15004KT 090V200 9999 FEW020 32/27 Q1010

EXPIRED METARs :
  • 280200Z 11003KT 050V180 9999 FEW020 31/27 Q1010
  • 280100Z VRB02KT 9999 FEW020 29/27 Q1010
  • 280000Z VRB01KT 9999 FEW010 28/27 Q1009

TAF TAF WMKM
Valid from the 28 at 00:00 until the 29 at 00:00 UTC


272300Z 2800/2900 VRB03KT 9999 FEW020
PROB30
TEMPO 2801/2805 4000 TSRA FEW017CB
WMFC FIR / Asia



MET'MAP, your aeronautical weather chart ! - Copyright ORBIFLY December 2007 - Disclaimer

ORBIFLY MET'MAP TEAM :

Programming & Development : Alexandra Zaïnal
Original concept : Baudouin d'Aumeries
Technical & hardware support : Manuel Goepfert
Assistance : Marc-Olivier Méhu




SOURCES & CREDITS :

   NOAA       Earth
Advisory